Latest Weather Observations for Coldstream

IDV60901

Issued at 9:11 pm EDT Friday 27 March 2015 (issued every 10 minutes, with the page automatically refreshed every 10 minutes)

About weather observations | Map of Melbourne area stations | Latest observations for Melbourne area | Other Formats
Station Details ID: 086383 Name: COLDSTREAM Lat: -37.72 Lon: 145.41 Height: 83.0 m
Data from the previous 72 hours. | See also: Recent months at Coldstream
Date/Time
EDT
Tmp

°C
App
Tmp
°C
Dew
Point
°C
Rel
Hum
%
Delta-T

°C
Wind Press
QNH
hPa
Press
MSL
hPa
Rain
since
9 am
mm
Dir
 
Spd
km/h
Gust
km/h
Spd
kts
Gust
kts
27/09:00pm 14.0 13.0 8.8 71 2.6 SSW 4 7 2 4 1024.7 1024.6 0.2
27/08:30pm 14.3 12.7 8.7 69 2.8 SSW 7 13 4 7 1024.5 1024.4 0.2
27/08:00pm 14.2 11.9 9.0 71 2.6 SSW 11 24 6 13 1024.2 1024.1 0.2
27/07:30pm 13.9 12.4 9.1 73 2.4 W 7 11 4 6 1023.8 1023.7 0.2
27/07:00pm 14.2 10.7 8.6 69 2.8 SW 17 30 9 16 1023.7 1023.6 0.2
27/06:30pm 15.1 12.8 7.6 61 3.7 SW 9 15 5 8 1023.3 1023.2 0.2
27/06:00pm 15.2 13.0 8.0 62 3.6 SW 9 15 5 8 1023.2 1023.1 0.2
27/05:30pm 15.4 11.6 7.4 59 4.0 WSW 17 24 9 13 1023.0 1022.9 0.2
27/05:00pm 16.0 13.5 8.0 59 4.0 SSW 11 17 6 9 1022.9 1022.8 0.2
27/04:30pm 15.6 11.6 8.4 62 3.7 WSW 19 28 10 15 1023.0 1022.9 0.2
27/04:00pm 13.9 9.2 9.1 73 2.4 SW 24 35 13 19 1023.3 1023.2 0.2
27/03:30pm 15.7 12.5 8.4 62 3.7 SW 15 28 8 15 1023.0 1022.9 0.2
27/03:00pm 15.6 11.4 8.1 61 3.8 SW 20 30 11 16 1023.1 1023.0 0.2
27/02:30pm 16.3 11.4 8.3 59 4.1 SW 24 35 13 19 1023.1 1023.0 0.2
27/02:00pm 15.7 11.5 8.4 62 3.7 SW 20 37 11 20 1023.4 1023.3 0.2
27/01:30pm 15.9 12.0 10.7 71 2.8 WSW 22 32 12 17 1023.5 1023.4 0.2
27/01:00pm 13.1 9.8 10.8 86 1.2 SW 19 28 10 15 1023.8 1023.7 0.2
27/12:30pm 15.5 9.9 8.7 64 3.5 WSW 28 41 15 22 1023.7 1023.6 0.0
27/12:00pm 14.9 9.2 8.4 65 3.3 W 28 44 15 24 1023.7 1023.6 0.0
27/11:30am 14.7 8.3 8.4 66 3.2 WSW 32 46 17 25 1023.7 1023.6 0.0
27/11:00am 14.8 10.0 8.7 67 3.1 WSW 24 32 13 17 1023.5 1023.4 0.0
27/10:30am 14.0 10.1 8.8 71 2.6 W 19 32 10 17 1023.5 1023.4 0.0
27/10:00am 13.6 10.3 9.5 76 2.1 W 17 26 9 14 1023.1 1023.0 0.0
27/09:30am 13.1 10.4 9.0 76 2.1 WNW 13 20 7 11 1023.1 1023.0 0.0
27/09:00am 12.9 9.5 9.0 77 2.0 W 17 32 9 17 1022.8 1022.7 1.8
27/08:30am 12.9 10.3 9.2 78 1.9 WNW 13 22 7 12 1022.4 1022.3 1.8
27/08:00am 12.6 9.6 9.1 79 1.8 WNW 15 22 8 12 1021.8 1021.7 1.8
27/07:30am 12.8 9.8 9.1 78 1.9 WNW 15 28 8 15 1021.3 1021.2 1.8
27/07:00am 12.4 9.8 9.2 81 1.6 NW 13 20 7 11 1021.1 1021.0 1.8
27/06:30am 12.6 10.3 8.9 78 1.9 WNW 11 17 6 9 1020.8 1020.7 1.8
27/06:00am 12.6 9.5 8.9 78 1.9 WNW 15 28 8 15 1020.4 1020.2 1.8
27/05:30am 12.6 9.9 8.9 78 1.9 WNW 13 20 7 11 1020.2 1020.0 1.8
27/05:00am 12.6 9.9 8.9 78 1.9 WNW 13 20 7 11 1020.1 1019.9 1.8
27/04:30am 12.7 9.6 8.8 77 2.0 WNW 15 24 8 13 1019.9 1019.7 1.8
27/04:00am 13.0 10.0 9.1 77 2.0 WNW 15 24 8 13 1019.8 1019.6 1.8
27/03:30am 12.9 10.3 9.4 79 1.8 WNW 13 24 7 13 1019.7 1019.5 1.8
27/03:00am 12.3 10.1 9.5 83 1.4 NW 11 19 6 10 1019.5 1019.3 1.8
27/02:30am 12.6 9.3 9.6 82 1.5 WNW 17 24 9 13 1019.5 1019.3 1.8
27/02:00am 13.3 9.8 8.8 74 2.3 NW 17 26 9 14 1019.4 1019.2 1.6
27/01:30am 13.2 9.7 8.9 75 2.2 WNW 17 26 9 14 1019.4 1019.2 1.6
27/01:00am 12.6 9.6 9.4 81 1.6 NW 15 20 8 11 1019.3 1019.1 1.6
27/12:30am 13.2 9.4 8.9 75 2.2 NW 19 30 10 16 1019.3 1019.1 1.4
27/12:00am 13.1 9.6 8.8 75 2.2 NW 17 26 9 14 1019.2 1019.0 1.4
 
Date/Time
EDT
Tmp

°C
App
Tmp
°C
Dew
Point
°C
Rel
Hum
%
Delta-T

°C
Wind Press
QNH
hPa
Press
MSL
hPa
Rain
since
9 am
mm
Dir
 
Spd
km/h
Gust
km/h
Spd
kts
Gust
kts
26/11:30pm 13.2 10.1 8.9 75 2.2 NW 15 26 8 14 1019.1 1018.9 1.4
26/11:00pm 13.3 9.8 8.6 73 2.4 NW 17 28 9 15 1019.1 1018.9 1.4
26/10:30pm 13.1 9.6 8.6 74 2.3 NW 17 28 9 15 1019.1 1018.9 1.4
26/10:00pm 12.9 9.3 8.2 73 2.3 NW 17 28 9 15 1019.0 1018.8 1.4
26/09:30pm 13.7 9.8 7.2 65 3.2 NW 17 30 9 16 1018.7 1018.5 1.4
26/09:00pm 12.3 9.7 7.8 74 2.2 NNW 11 17 6 9 1018.3 1018.1 1.4
26/08:30pm 13.7 8.4 6.6 62 3.4 NNW 24 43 13 23 1018.0 1017.8 1.4
26/08:00pm 14.1 8.7 6.5 60 3.7 NW 24 39 13 21 1018.0 1017.8 1.4
26/07:30pm 13.3 9.7 6.9 65 3.1 NW 15 26 8 14 1017.9 1017.7 1.2
26/07:00pm 12.9 9.2 6.5 65 3.1 WNW 15 28 8 15 1017.5 1017.3 1.0
26/06:30pm 13.9 8.3 5.5 57 4.0 NW 24 43 13 23 1017.0 1016.8 0.6
26/06:00pm 13.8 6.5 4.7 54 4.2 WNW 32 57 17 31 1016.8 1016.6 0.2
26/05:55pm 14.9 7.8 3.4 46 5.2 WNW 30 57 16 31 1016.7 1016.5 0.2
26/05:54pm 15.0 8.2 3.2 45 5.4 WNW 28 57 15 31 1016.7 1016.5 0.2
26/05:30pm 16.3 10.9 1.2 36 6.6 NNW 19 32 10 17 1016.2 1016.0 0.2
26/05:00pm 16.3 9.8 0.4 34 6.9 NNW 24 37 13 20 1016.0 1015.8 0.2
26/04:30pm 16.9 10.4 0.5 33 7.2 NNW 24 41 13 22 1016.1 1015.9 0.2
26/04:00pm 16.8 9.9 0.0 32 7.2 NW 26 41 14 22 1016.7 1016.5 0.2
26/03:30pm 18.4 11.7 1.4 32 7.7 NW 26 39 14 21 1016.7 1016.5 0.2
26/03:00pm 17.7 11.3 0.8 32 7.5 NW 24 44 13 24 1017.2 1017.0 0.2
26/02:30pm 17.8 11.7 2.5 36 7.0 NW 24 41 13 22 1017.6 1017.4 0.0
26/02:00pm 16.1 10.3 2.5 40 6.1 NW 22 33 12 18 1017.8 1017.6 0.0
26/01:30pm 15.7 10.0 2.8 42 5.8 NW 22 32 12 17 1018.0 1017.8 0.0
26/01:00pm 15.6 10.4 2.4 41 5.9 NW 19 30 10 16 1018.1 1017.9 0.0
26/12:30pm 14.5 9.4 3.0 46 5.2 NW 19 30 10 16 1018.5 1018.3 0.0
26/12:00pm 14.1 9.6 4.1 51 4.6 NW 17 26 9 14 1018.6 1018.4 0.0
26/11:30am 13.9 9.1 4.5 53 4.4 NW 19 30 10 16 1018.7 1018.5 0.0
26/11:00am 13.5 9.6 5.2 57 3.9 NW 15 22 8 12 1018.8 1018.6 0.0
26/10:30am 13.9 10.2 6.5 61 3.6 NW 15 28 8 15 1018.8 1018.6 0.0
26/10:00am 12.3 8.4 5.5 63 3.2 NW 15 24 8 13 1018.8 1018.6 0.0
26/09:30am 11.9 9.5 7.2 73 2.3 N 9 17 5 9 1018.6 1018.4 0.0
26/09:00am 8.9 7.8 6.7 86 1.0 N 2 7 1 4 1018.6 1018.4 0.6
26/08:30am 8.1 6.6 7.0 93 0.5 NNE 4 7 2 4 1018.3 1018.1 0.6
26/08:00am 6.4 4.9 4.9 90 0.7 NNW 2 6 1 3 1017.9 1017.7 0.6
26/07:30am 6.9 4.7 5.5 91 0.6 N 6 9 3 5 1017.3 1017.1 0.6
26/07:00am 7.6 5.1 6.5 93 0.5 NNW 9 19 5 10 1017.0 1016.8 0.6
26/06:30am 7.6 5.9 6.1 90 0.7 N 4 7 2 4 1016.8 1016.6 0.6
26/06:00am 8.9 7.1 7.0 88 0.9 N 6 9 3 5 1016.6 1016.4 0.6
26/05:30am 9.6 7.8 7.2 85 1.1 NW 6 11 3 6 1016.3 1016.1 0.6
26/05:00am 10.4 8.1 7.3 81 1.5 WNW 9 13 5 7 1016.4 1016.2 0.2
26/04:30am 10.6 8.6 6.4 75 2.0 N 6 9 3 5 1015.8 1015.6 0.0
26/04:00am 11.1 8.8 5.6 69 2.5 N 7 11 4 6 1015.8 1015.6 0.0
26/03:30am 11.2 8.8 5.3 67 2.7 N 7 9 4 5 1015.9 1015.7 0.0
26/03:00am 11.5 5.5 5.4 66 2.8 WSW 26 37 14 20 1016.0 1015.8 0.0
26/02:30am 11.6 4.5 5.5 66 2.8 WSW 32 43 17 23 1015.9 1015.7 0.0
26/02:00am 13.7 9.0 5.1 56 4.0 W 19 35 10 19 1015.7 1015.5 0.0
26/01:30am 13.8 9.5 3.3 49 4.7 N 15 22 8 12 1014.5 1014.3 0.0
26/01:00am 13.0 9.5 3.4 52 4.3 N 11 17 6 9 1014.6 1014.4 0.0
26/12:30am 12.7 9.3 4.2 56 3.9 N 11 15 6 8 1014.7 1014.5 0.0
26/12:00am 13.5 10.9 4.4 54 4.2 N 7 13 4 7 1014.8 1014.6 0.0
 
Date/Time
EDT
Tmp

°C
App
Tmp
°C
Dew
Point
°C
Rel
Hum
%
Delta-T

°C
Wind Press
QNH
hPa
Press
MSL
hPa
Rain
since
9 am
mm
Dir
 
Spd
km/h
Gust
km/h
Spd
kts
Gust
kts
25/11:30pm 13.2 10.9 5.6 60 3.6 N 7 9 4 5 1015.0 1014.8 0.0
25/11:00pm 11.5 9.6 6.6 72 2.3 NNW 6 11 3 6 1015.2 1015.0 0.0
25/10:30pm 12.5 11.0 8.6 77 1.9 NNE 6 9 3 5 1015.3 1015.1 0.0
25/10:00pm 9.9 9.4 7.8 87 1.0 CALM 0 0 0 0 1015.1 1014.9 0.0
25/09:30pm 10.3 9.5 6.6 78 1.7 CALM 0 0 0 0 1014.6 1014.4 0.0
25/09:00pm 12.7 12.3 8.2 74 2.2 CALM 0 0 0 0 1013.9 1013.8 0.0
25/08:30pm 15.7 14.8 9.1 65 3.4 SSW 4 11 2 6 1013.7 1013.6 0.0
25/08:00pm 13.4 12.6 6.5 63 3.3 CALM 0 0 0 0 1013.2 1013.1 0.0
25/07:30pm 17.2 15.4 7.0 51 5.1 NNW 6 9 3 5 1012.9 1012.8 0.0
25/07:00pm 19.6 17.0 6.3 42 6.7 NNW 9 20 5 11 1012.8 1012.7 0.0
25/06:30pm 21.1 17.3 5.9 37 7.6 NNW 15 28 8 15 1012.4 1012.3 0.0
25/06:00pm 22.4 18.7 6.2 35 8.3 NNW 15 22 8 12 1012.3 1012.2 0.0
25/05:30pm 21.3 19.1 7.9 42 7.0 NNW 9 15 5 8 1012.6 1012.5 0.0
25/05:00pm 21.8 17.8 6.5 37 7.8 N 17 28 9 15 1012.6 1012.5 0.0
25/04:30pm 21.5 17.1 6.6 38 7.6 NNW 19 32 10 17 1012.8 1012.7 0.0
25/04:00pm 21.1 19.8 10.0 49 6.0 WSW 7 13 4 7 1013.1 1013.0 0.0
25/03:30pm 20.5 18.9 8.8 47 6.2 WNW 7 13 4 7 1013.5 1013.4 0.0
25/03:00pm 20.5 18.1 10.0 51 5.7 WSW 13 19 7 10 1013.9 1013.8 0.0
25/02:30pm 19.5 17.0 9.7 53 5.2 WSW 13 19 7 10 1014.6 1014.4 0.0
25/02:00pm 19.5 18.1 9.4 52 5.4 NW 7 15 4 8 1015.2 1015.0 0.0
25/01:30pm 19.5 17.8 10.0 54 5.1 NNW 9 15 5 8 1015.9 1015.7 0.0
25/01:00pm 18.4 16.8 10.3 59 4.3 ENE 9 19 5 10 1016.4 1016.2 0.0
25/12:30pm 17.5 15.7 9.4 59 4.3 NNE 9 15 5 8 1016.9 1016.7 0.0
25/12:00pm 17.4 15.9 9.3 59 4.2 ENE 7 19 4 10 1017.3 1017.1 0.0
25/11:30am 16.6 15.5 9.8 64 3.6 SE 6 11 3 6 1017.8 1017.6 0.0
25/11:00am 16.2 15.1 10.7 70 2.9 SSE 7 15 4 8 1018.4 1018.2 0.0
25/10:30am 14.5 12.8 9.7 73 2.5 SE 9 13 5 7 1018.7 1018.5 0.0
25/10:00am 14.3 12.9 9.7 74 2.4 SE 7 13 4 7 1018.9 1018.7 0.0
25/09:30am 13.4 11.5 9.1 75 2.2 ESE 9 15 5 8 1018.6 1018.4 0.0
25/09:00am 12.7 11.1 10.1 84 1.3 E 9 13 5 7 1018.7 1018.5 0.6
25/08:30am 12.0 12.1 10.2 89 0.9 CALM 0 0 0 0 1019.1 1018.9 0.6
25/08:00am 11.7 11.8 10.3 91 0.7 CALM 0 0 0 0 1019.2 1019.0 0.6
25/07:30am 11.5 11.2 10.1 91 0.7 SSE 2 6 1 3 1018.5 1018.3 0.6
25/07:00am 11.3 11.3 9.9 91 0.7 CALM 0 0 0 0 1018.2 1018.0 0.6
25/06:30am 11.5 11.5 9.9 90 0.8 CALM 0 0 0 0 1018.3 1018.1 0.6
25/06:00am 11.5 11.5 9.9 90 0.8 CALM 0 0 0 0 1018.4 1018.2 0.6
25/05:30am 11.5 11.5 9.8 89 0.9 CALM 0 0 0 0 1018.1 1017.9 0.6
25/05:00am 11.3 10.5 9.6 89 0.9 S 4 9 2 5 1018.0 1017.8 0.6
25/04:30am 11.3 11.3 9.9 91 0.7 CALM 0 0 0 0 1018.2 1018.0 0.6
25/04:00am 11.3 10.9 9.7 90 0.8 SSW 2 7 1 4 1018.4 1018.2 0.6
25/03:30am 11.3 10.1 9.6 89 0.9 SSE 6 9 3 5 1018.3 1018.1 0.6
25/03:00am 11.2 9.5 9.8 91 0.7 SE 9 9 5 5 1018.7 1018.5 0.6
25/02:30am 11.1 9.7 9.5 90 0.8 S 7 9 4 5 1019.1 1018.9 0.6
25/02:00am 11.2 9.9 9.9 92 0.7 S 7 9 4 5 1019.0 1018.8 0.6
25/01:30am 11.1 10.4 10.0 93 0.6 SSE 4 7 2 4 1019.2 1019.0 0.6
25/01:00am 11.2 9.9 10.1 93 0.6 ESE 7 9 4 5 1019.3 1019.1 0.6
25/12:30am 11.2 9.6 10.1 93 0.6 SE 9 11 5 6 1019.6 1019.4 0.6
25/12:00am 11.2 9.9 10.1 93 0.6 SSE 7 9 4 5 1020.2 1020.0 0.6
 
Date/Time
EDT
Tmp

°C
App
Tmp
°C
Dew
Point
°C
Rel
Hum
%
Delta-T

°C
Wind Press
QNH
hPa
Press
MSL
hPa
Rain
since
9 am
mm
Dir
 
Spd
km/h
Gust
km/h
Spd
kts
Gust
kts
24/11:30pm 11.1 9.8 10.0 93 0.6 SE 7 11 4 6 1020.1 1019.9 0.6
24/11:00pm 11.3 10.1 10.4 94 0.5 SSE 7 11 4 6 1020.3 1020.1 0.6
24/10:30pm 11.3 10.4 10.5 95 0.4 SE 6 9 3 5 1020.5 1020.4 0.6
24/10:00pm 11.4 11.6 10.6 95 0.4 CALM 0 0 0 0 1020.3 1020.1 0.6
24/09:30pm 11.5 10.9 10.4 93 0.6 S 4 7 2 4 1020.3 1020.1 0.2

Latest Capital City Observations: Canberra | Sydney | Melbourne | Brisbane | Adelaide | Perth | Hobart | Darwin

Other Formats:

Comma delimited format used in spreadsheet applications
http://www.bom.gov.au/fwo/IDV60901/IDV60901.94864.axf

JavaScript Object Notation format (JSON) in row-major order
http://www.bom.gov.au/fwo/IDV60901/IDV60901.94864.json